Time;durP1;ratioP1;P1;durP2;ratioP2;P2;SDS_P1;SDS_P2;PMS_P1;PMS_P2;Temp;Humidity;BMP_temperature;BMP_pressure;BME280_temperature;BME280_humidity;BME280_pressure;Samples;Min_cycle;Max_cycle;Signal;HPM_P1;HPM_P2
2021/12/14 00:01:55;;;;;;;15.00;8.55;;;9.90;93.70;;;;;;4962487;28;20142;-65
2021/12/14 00:04:33;;;;;;;16.05;9.50;;;9.90;93.60;;;;;;4968343;28;20038;-65
2021/12/14 00:07:02;;;;;;;16.88;9.82;;;9.90;93.60;;;;;;4970778;28;20708;-65
2021/12/14 00:09:34;;;;;;;16.73;9.55;;;9.90;93.60;;;;;;4966344;28;20522;-65
2021/12/14 00:15:04;;;;;;;16.75;9.57;;;9.90;93.40;;;;;;4954126;28;20729;-65
2021/12/14 00:17:44;;;;;;;19.10;9.43;;;9.90;93.60;;;;;;4958227;28;20700;-69
2021/12/14 00:20:20;;;;;;;14.10;8.95;;;9.90;93.60;;;;;;4961605;28;20050;-65
2021/12/14 00:25:46;;;;;;;21.88;10.40;;;9.90;93.60;;;;;;4965274;28;20093;-65
2021/12/14 00:28:24;;;;;;;20.30;10.95;;;9.90;93.40;;;;;;4971909;28;20204;-65
2021/12/14 00:30:51;;;;;;;22.10;12.57;;;9.90;93.40;;;;;;4967628;28;20038;-65
2021/12/14 00:33:20;;;;;;;16.50;9.50;;;9.90;93.30;;;;;;4972224;28;20038;-66
2021/12/14 00:35:47;;;;;;;17.20;9.13;;;9.90;93.40;;;;;;4981710;28;20031;-65
2021/12/14 00:38:16;;;;;;;20.90;10.45;;;9.80;93.40;;;;;;4968130;28;20035;-65
2021/12/14 00:40:46;;;;;;;16.60;9.38;;;9.80;93.50;;;;;;4965509;28;20047;-65
2021/12/14 00:43:11;;;;;;;17.30;10.18;;;9.80;93.40;;;;;;4960676;28;20482;-65
2021/12/14 00:45:41;;;;;;;18.80;10.07;;;9.80;93.40;;;;;;4964018;28;20031;-65
2021/12/14 00:48:09;;;;;;;17.80;9.57;;;9.80;93.40;;;;;;4984123;28;20049;-65
2021/12/14 00:50:36;;;;;;;15.40;9.35;;;9.80;93.50;;;;;;4969053;28;20049;-65
2021/12/14 00:53:02;;;;;;;15.90;9.25;;;9.80;93.60;;;;;;4966422;28;20039;-64
2021/12/14 00:55:36;;;;;;;15.63;9.45;;;9.80;93.60;;;;;;4964936;28;20034;-65
2021/12/14 00:58:03;;;;;;;15.68;9.90;;;9.80;93.60;;;;;;4958937;28;20124;-65
2021/12/14 01:00:34;;;;;;;15.27;8.75;;;9.80;93.60;;;;;;4963235;28;20055;-65
2021/12/14 01:03:00;;;;;;;17.58;8.63;;;9.80;93.50;;;;;;4958961;28;20023;-65
2021/12/14 01:05:33;;;;;;;15.48;9.93;;;9.80;93.60;;;;;;4967025;28;20034;-64
2021/12/14 01:08:01;;;;;;;15.63;9.85;;;9.70;93.50;;;;;;4969572;28;20042;-65
2021/12/14 01:10:30;;;;;;;14.55;8.30;;;9.70;93.60;;;;;;4969220;28;20042;-65
2021/12/14 01:13:02;;;;;;;13.57;8.13;;;9.70;93.90;;;;;;4963369;28;20045;-65
2021/12/14 01:15:51;;;;;;;11.52;8.10;;;9.70;93.60;;;;;;4969514;28;20404;-65
2021/12/14 01:18:34;;;;;;;14.07;7.38;;;9.70;93.60;;;;;;4972994;28;20758;-65
2021/12/14 01:24:10;;;;;;;10.93;6.88;;;9.80;93.50;;;;;;4967141;28;20074;-66
2021/12/14 01:26:39;;;;;;;10.45;6.70;;;9.70;93.50;;;;;;4947294;28;20038;-66
2021/12/14 01:29:09;;;;;;;12.73;7.72;;;9.70;93.40;;;;;;4971007;28;20095;-66
2021/12/14 01:31:39;;;;;;;14.25;8.00;;;9.70;93.50;;;;;;4967749;28;20483;-65
2021/12/14 01:34:08;;;;;;;16.67;8.70;;;9.70;93.40;;;;;;4974946;28;20397;-65
2021/12/14 01:36:43;;;;;;;14.85;7.72;;;9.70;93.40;;;;;;4966608;28;20714;-65
2021/12/14 01:42:27;;;;;;;11.75;7.45;;;9.70;93.60;;;;;;4974128;28;20023;-66
2021/12/14 01:45:02;;;;;;;14.60;8.13;;;9.70;93.50;;;;;;4969189;28;20487;-65
2021/12/14 01:47:40;;;;;;;14.63;8.23;;;9.70;93.50;;;;;;4947078;28;20039;-65
2021/12/14 01:50:49;;;;;;;11.52;7.47;;;9.70;93.40;;;;;;4963482;28;20158;-65
2021/12/14 01:53:25;;;;;;;13.82;7.55;;;9.70;93.40;;;;;;4959504;28;20039;-65
2021/12/14 01:55:55;;;;;;;11.52;7.25;;;9.70;93.30;;;;;;4963216;28;20031;-65
2021/12/14 01:58:25;;;;;;;13.50;7.15;;;9.60;93.30;;;;;;4976181;28;20085;-65
2021/12/14 02:01:00;;;;;;;11.10;7.00;;;9.60;93.30;;;;;;4969948;28;20692;-66
2021/12/14 02:03:37;;;;;;;9.90;5.72;;;9.60;93.30;;;;;;4959267;28;20059;-64
2021/12/14 02:06:03;;;;;;;;;;;9.60;93.30;;;;;;4978449;28;20034;-65
2021/12/14 02:08:33;;;;;;;;;;;9.60;93.20;;;;;;4967226;28;20643;-66
2021/12/14 02:11:01;;;;;;;11.93;7.35;;;9.60;93.20;;;;;;4967421;28;19920;-65
2021/12/14 02:13:44;;;;;;;10.13;5.93;;;9.60;93.30;;;;;;4969758;28;20146;-65
2021/12/14 02:16:18;;;;;;;10.35;6.18;;;9.60;93.30;;;;;;4954381;28;20027;-65
2021/12/14 02:18:47;;;;;;;10.38;6.05;;;9.60;93.20;;;;;;4965017;28;20033;-65
2021/12/14 02:21:14;;;;;;;9.98;6.45;;;9.60;93.20;;;;;;4952152;28;20027;-66
2021/12/14 02:23:44;;;;;;;9.00;5.60;;;9.60;93.10;;;;;;4957566;28;20038;-65
2021/12/14 02:26:17;;;;;;;9.85;5.95;;;9.60;93.10;;;;;;4966649;28;20044;-65
2021/12/14 02:28:44;;;;;;;9.57;6.00;;;9.60;93.10;;;;;;4964045;28;20376;-65
2021/12/14 02:31:13;;;;;;;9.38;5.75;;;9.60;93.00;;;;;;4966220;28;21045;-65
2021/12/14 02:33:42;;;;;;;8.68;5.82;;;9.60;93.00;;;;;;4964549;28;20034;-66
2021/12/14 02:36:13;;;;;;;10.68;6.18;;;9.60;93.00;;;;;;4953131;28;20082;-65
2021/12/14 02:38:53;;;;;;;9.60;6.00;;;9.60;92.90;;;;;;4963267;28;20034;-65
2021/12/14 02:41:20;;;;;;;8.90;6.43;;;9.60;93.00;;;;;;4964941;28;20804;-66
2021/12/14 02:43:54;;;;;;;8.82;5.55;;;9.60;93.10;;;;;;4964720;28;20030;-66
2021/12/14 02:46:34;;;;;;;7.82;5.10;;;9.60;93.10;;;;;;4962269;28;20117;-66
2021/12/14 02:49:07;;;;;;;9.00;5.40;;;9.60;93.00;;;;;;4961669;28;20084;-66
2021/12/14 02:51:40;;;;;;;9.98;5.47;;;9.50;93.00;;;;;;4959698;28;20023;-66
2021/12/14 02:54:10;;;;;;;9.27;5.75;;;9.60;93.10;;;;;;4967067;28;20113;-66
2021/12/14 02:56:38;;;;;;;9.15;5.78;;;9.60;93.00;;;;;;4964708;28;20031;-66
2021/12/14 02:59:17;;;;;;;9.93;5.43;;;9.60;93.00;;;;;;4961076;28;20577;-66
2021/12/14 03:01:46;;;;;;;9.40;6.13;;;9.60;93.00;;;;;;4962716;28;20030;-66
2021/12/14 03:04:16;;;;;;;10.07;6.07;;;9.60;93.00;;;;;;4953446;28;20043;-66
2021/12/14 03:06:48;;;;;;;11.00;6.57;;;9.60;92.90;;;;;;4962882;28;20031;-66
2021/12/14 03:09:37;;;;;;;9.18;5.78;;;9.60;92.90;;;;;;4974124;28;20064;-67
2021/12/14 03:12:17;;;;;;;9.65;6.18;;;9.60;92.90;;;;;;4976788;28;20111;-66
2021/12/14 03:14:55;;;;;;;11.15;7.07;;;9.60;92.90;;;;;;4963566;28;20781;-66
2021/12/14 03:17:21;;;;;;;10.98;6.65;;;9.50;92.80;;;;;;4957400;28;20026;-66
2021/12/14 03:20:00;;;;;;;15.75;8.65;;;9.50;92.70;;;;;;4961746;28;20070;-67
2021/12/14 03:23:05;;;;;;;11.90;6.38;;;9.50;92.70;;;;;;4968953;28;20027;-67
2021/12/14 03:25:33;;;;;;;10.95;5.72;;;9.50;92.70;;;;;;4966235;28;20039;-66
2021/12/14 03:28:00;;;;;;;10.57;7.07;;;9.50;92.70;;;;;;4964904;28;20117;-66
2021/12/14 03:30:25;;;;;;;10.55;6.30;;;9.50;92.80;;;;;;4960523;28;20475;-66
2021/12/14 03:32:55;;;;;;;13.98;7.80;;;9.50;92.80;;;;;;4959177;28;20038;-67
2021/12/14 03:35:33;;;;;;;16.23;7.70;;;9.50;92.70;;;;;;4966527;28;20034;-66
2021/12/14 03:38:14;;;;;;;11.98;6.57;;;9.50;92.60;;;;;;4966544;28;20030;-66
2021/12/14 03:40:40;;;;;;;13.43;7.13;;;9.50;92.60;;;;;;4964688;28;20109;-66
2021/12/14 03:43:13;;;;;;;14.60;7.35;;;9.50;92.60;;;;;;4964326;28;20031;-66
2021/12/14 03:45:40;;;;;;;15.05;7.55;;;9.40;92.60;;;;;;4962825;28;20084;-66
2021/12/14 03:48:06;;;;;;;16.52;8.40;;;9.40;92.70;;;;;;4961628;28;20023;-66
2021/12/14 03:50:41;;;;;;;14.27;7.35;;;9.50;92.50;;;;;;4968862;28;20034;-66
2021/12/14 03:53:08;;;;;;;14.85;7.40;;;9.50;92.60;;;;;;4960514;28;20110;-66
2021/12/14 03:55:39;;;;;;;13.50;7.28;;;9.40;92.50;;;;;;4962607;28;20063;-66
2021/12/14 03:58:15;;;;;;;15.98;7.85;;;9.40;92.50;;;;;;4951395;28;20050;-66
2021/12/14 04:00:56;;;;;;;15.90;8.20;;;9.40;92.50;;;;;;4962468;28;20808;-66
2021/12/14 04:03:24;;;;;;;14.13;7.57;;;9.40;92.40;;;;;;4969516;28;20741;-66
2021/12/14 04:06:05;;;;;;;17.70;8.35;;;9.40;92.40;;;;;;4967325;28;20027;-66
2021/12/14 04:08:31;;;;;;;17.52;8.45;;;9.40;92.40;;;;;;4975876;28;20042;-66
2021/12/14 04:11:02;;;;;;;16.38;8.25;;;9.30;92.30;;;;;;4965090;28;20462;-66
2021/12/14 04:13:35;;;;;;;14.98;7.60;;;9.40;92.40;;;;;;4967362;28;20042;-67
2021/12/14 04:16:05;;;;;;;16.70;7.32;;;9.40;92.40;;;;;;4966448;28;20475;-66
2021/12/14 04:18:31;;;;;;;14.02;7.35;;;9.40;92.30;;;;;;4964669;28;20615;-66
2021/12/14 04:20:58;;;;;;;14.40;6.88;;;9.40;92.30;;;;;;4968930;28;20031;-66
2021/12/14 04:23:29;;;;;;;14.95;7.60;;;9.40;92.30;;;;;;4965169;28;20083;-66
2021/12/14 04:25:58;;;;;;;12.85;7.25;;;9.40;92.30;;;;;;4965991;28;20407;-66
2021/12/14 04:28:32;;;;;;;13.50;7.65;;;9.40;92.30;;;;;;4965585;28;20054;-66
2021/12/14 04:30:58;;;;;;;16.60;7.85;;;9.40;92.30;;;;;;4962861;28;20063;-66
2021/12/14 04:33:30;;;;;;;15.77;8.40;;;9.40;92.40;;;;;;4973986;28;20035;-66
2021/12/14 04:35:56;;;;;;;14.70;7.57;;;9.40;92.40;;;;;;4974566;28;20123;-66
2021/12/14 04:38:29;;;;;;;12.88;7.32;;;9.40;92.40;;;;;;4966920;28;20058;-66
2021/12/14 04:52:08;;;;;;;14.73;7.18;;;9.30;92.50;;;;;;4978596;28;20068;-66
2021/12/14 04:54:44;;;;;;;12.48;7.13;;;9.30;92.60;;;;;;4968112;28;20498;-66
2021/12/14 04:57:28;;;;;;;12.75;6.80;;;9.30;92.60;;;;;;4967527;28;20031;-66
2021/12/14 05:00:00;;;;;;;12.15;7.07;;;9.30;92.60;;;;;;4974760;28;20041;-66
2021/12/14 05:02:31;;;;;;;13.98;7.75;;;9.30;92.60;;;;;;4962792;28;20034;-66
2021/12/14 05:05:03;;;;;;;13.70;7.53;;;9.30;92.70;;;;;;4962950;28;20513;-65
2021/12/14 05:10:05;;;;;;;13.48;7.15;;;9.30;92.70;;;;;;4966671;28;20030;-65
2021/12/14 05:12:34;;;;;;;14.15;6.85;;;9.30;92.60;;;;;;4972221;28;20507;-65
2021/12/14 05:15:15;;;;;;;11.55;6.47;;;9.30;92.60;;;;;;4976596;28;20053;-65
2021/12/14 05:17:47;;;;;;;12.20;6.80;;;9.30;92.60;;;;;;4967386;28;20042;-65
2021/12/14 05:20:16;;;;;;;17.48;8.02;;;9.30;92.60;;;;;;4961292;28;20110;-65
2021/12/14 05:22:44;;;;;;;11.18;6.65;;;9.30;92.60;;;;;;4958801;28;20459;-65
2021/12/14 05:25:18;;;;;;;14.23;6.88;;;9.30;92.60;;;;;;4967603;28;20062;-65
2021/12/14 05:27:47;;;;;;;12.25;6.45;;;9.30;92.60;;;;;;4968920;28;20026;-65
2021/12/14 05:30:25;;;;;;;10.95;7.00;;;9.20;92.50;;;;;;4967320;28;20038;-65
2021/12/14 05:33:36;;;;;;;14.02;7.03;;;9.30;92.60;;;;;;4969954;28;20062;-65
2021/12/14 05:36:23;;;;;;;13.40;7.00;;;9.30;92.50;;;;;;4960932;28;20073;-64
2021/12/14 05:39:17;;;;;;;12.65;7.10;;;9.30;92.30;;;;;;4960855;28;20137;-65
2021/12/14 05:44:44;;;;;;;13.68;7.63;;;9.20;92.50;;;;;;4969344;28;20031;-65
2021/12/14 05:47:14;;;;;;;13.75;7.38;;;9.20;92.50;;;;;;4958107;28;20117;-65
2021/12/14 05:50:00;;;;;;;11.32;6.45;;;9.30;92.30;;;;;;4965479;28;20122;-65
2021/12/14 05:52:28;;;;;;;12.23;6.75;;;9.20;92.30;;;;;;4959546;28;20125;-65
2021/12/14 05:54:59;;;;;;;10.98;6.05;;;9.20;92.30;;;;;;4966265;28;20045;-65
2021/12/14 05:57:27;;;;;;;10.60;5.85;;;9.20;92.40;;;;;;4969774;28;20039;-65
2021/12/14 05:59:55;;;;;;;11.90;6.43;;;9.20;92.40;;;;;;4960175;28;20035;-65
2021/12/14 06:02:23;;;;;;;13.18;6.40;;;9.20;92.50;;;;;;4968740;28;20608;-65
2021/12/14 06:04:54;;;;;;;13.18;7.07;;;9.20;92.50;;;;;;4962543;28;20038;-65
2021/12/14 06:07:23;;;;;;;10.35;6.95;;;9.20;92.50;;;;;;4965880;28;20031;-66
2021/12/14 06:09:52;;;;;;;11.05;6.93;;;9.20;92.50;;;;;;4968582;28;20207;-65
2021/12/14 06:12:31;;;;;;;11.45;6.15;;;9.20;92.60;;;;;;4962382;28;20045;-65
2021/12/14 06:14:59;;;;;;;14.18;7.22;;;9.20;92.40;;;;;;4965652;28;20109;-64
2021/12/14 06:17:34;;;;;;;10.02;5.90;;;9.20;92.40;;;;;;4946807;28;20038;-64
2021/12/14 06:20:07;;;;;;;10.55;6.38;;;9.20;92.30;;;;;;4961655;28;20058;-64
2021/12/14 06:22:33;;;;;;;12.00;6.32;;;9.20;92.20;;;;;;4967982;28;20070;-65
2021/12/14 06:25:04;;;;;;;11.68;6.10;;;9.10;92.30;;;;;;4953649;28;20029;-65
2021/12/14 06:27:32;;;;;;;11.75;5.85;;;9.20;92.40;;;;;;4965508;28;20034;-64
2021/12/14 06:30:07;;;;;;;12.10;6.95;;;9.20;92.40;;;;;;4965005;28;20034;-65
2021/12/14 06:32:39;;;;;;;9.95;5.85;;;9.20;92.40;;;;;;4962856;28;20031;-64
2021/12/14 06:35:16;;;;;;;18.65;9.10;;;9.20;92.40;;;;;;4957222;28;20770;-65
2021/12/14 06:40:38;;;;;;;20.87;10.93;;;9.20;92.40;;;;;;4959938;28;20035;-65
2021/12/14 06:43:08;;;;;;;16.08;8.07;;;9.20;92.30;;;;;;4962018;28;20072;-67
2021/12/14 06:45:38;;;;;;;24.02;12.35;;;9.10;92.20;;;;;;4962695;28;20093;-65
2021/12/14 06:48:12;;;;;;;26.38;11.93;;;9.10;92.30;;;;;;4960990;28;20418;-64
2021/12/14 06:50:49;;;;;;;25.63;12.88;;;9.20;92.30;;;;;;4965889;28;20039;-64
2021/12/14 06:53:30;;;;;;;17.80;9.63;;;9.10;92.30;;;;;;4974000;28;20030;-65
2021/12/14 06:56:19;;;;;;;27.30;14.07;;;9.10;92.30;;;;;;4965140;28;20042;-64
2021/12/14 06:59:12;;;;;;;29.42;16.35;;;9.10;92.30;;;;;;4963929;28;20108;-65
2021/12/14 07:02:00;;;;;;;26.42;14.65;;;9.10;92.40;;;;;;4963347;28;20431;-64
2021/12/14 07:04:34;;;;;;;42.50;22.27;;;9.10;92.20;;;;;;4968155;28;20039;-65
2021/12/14 07:07:07;;;;;;;42.55;21.05;;;9.10;92.10;;;;;;4969171;28;20030;-64
2021/12/14 07:09:50;;;;;;;33.17;16.55;;;9.10;92.20;;;;;;4964961;28;20109;-64
2021/12/14 07:12:26;;;;;;;23.02;11.63;;;9.10;92.20;;;;;;4964216;28;20039;-64
2021/12/14 07:14:53;;;;;;;20.00;9.93;;;9.10;92.30;;;;;;4963199;28;20031;-67
2021/12/14 07:17:41;;;;;;;36.78;19.48;;;9.20;92.30;;;;;;4961798;28;20039;-64
2021/12/14 07:20:21;;;;;;;24.88;13.88;;;9.20;92.00;;;;;;4964574;28;20034;-65
2021/12/14 07:23:04;;;;;;;25.27;12.95;;;9.10;92.00;;;;;;4967292;28;20031;-65
2021/12/14 07:25:40;;;;;;;23.50;13.73;;;9.10;92.20;;;;;;4962403;28;20554;-66
2021/12/14 07:28:08;;;;;;;17.45;10.18;;;9.10;92.20;;;;;;4962651;28;20030;-66
2021/12/14 07:30:44;;;;;;;16.02;8.75;;;9.10;92.20;;;;;;4962865;28;20031;-67
2021/12/14 07:33:20;;;;;;;14.27;8.07;;;9.20;91.80;;;;;;4969195;28;20112;-67
2021/12/14 07:35:58;;;;;;;15.73;8.10;;;9.10;92.00;;;;;;4971978;28;20084;-67
2021/12/14 07:38:29;;;;;;;15.18;8.52;;;9.10;92.10;;;;;;4966191;28;20066;-67
2021/12/14 07:41:00;;;;;;;14.50;7.22;;;9.20;92.00;;;;;;4972890;28;20046;-67
2021/12/14 07:43:30;;;;;;;13.48;7.45;;;9.20;92.10;;;;;;4966052;28;20031;-65
2021/12/14 07:45:58;;;;;;;14.82;8.63;;;9.10;92.10;;;;;;4967953;28;20074;-66
2021/12/14 07:48:44;;;;;;;15.23;8.68;;;9.20;92.20;;;;;;4972072;28;20479;-66
2021/12/14 07:51:11;;;;;;;17.55;9.48;;;9.20;92.20;;;;;;4981733;28;20120;-66
2021/12/14 07:53:51;;;;;;;17.83;9.48;;;9.20;92.20;;;;;;4967817;28;20039;-66
2021/12/14 07:56:36;;;;;;;19.15;10.32;;;9.20;92.30;;;;;;4963063;28;20041;-66
2021/12/14 07:59:09;;;;;;;14.65;8.82;;;9.20;92.30;;;;;;4965122;28;20026;-66
2021/12/14 08:01:35;;;;;;;16.88;9.70;;;9.20;92.30;;;;;;4970823;28;20031;-66
2021/12/14 08:04:10;;;;;;;15.77;8.85;;;9.20;92.20;;;;;;4968218;28;20077;-67
2021/12/14 08:06:53;;;;;;;15.38;8.07;;;9.30;92.20;;;;;;4967348;28;20454;-66
2021/12/14 08:09:34;;;;;;;12.70;7.55;;;9.30;92.20;;;;;;4964276;28;20591;-66
2021/12/14 08:12:02;;;;;;;14.25;7.68;;;9.30;92.20;;;;;;4965814;28;20045;-67
2021/12/14 08:14:31;;;;;;;10.93;7.50;;;9.30;92.10;;;;;;4967197;28;20049;-67
2021/12/14 08:17:09;;;;;;;12.02;7.25;;;9.30;92.10;;;;;;4973028;28;20903;-66
2021/12/14 08:19:37;;;;;;;21.20;10.48;;;9.40;92.20;;;;;;4969221;28;20718;-66
2021/12/14 08:22:24;;;;;;;16.35;8.68;;;9.40;92.00;;;;;;4965865;28;20034;-66
2021/12/14 08:24:50;;;;;;;18.77;8.57;;;9.40;91.90;;;;;;4966537;28;20626;-66
2021/12/14 08:27:23;;;;;;;14.50;8.23;;;9.40;91.70;;;;;;4964150;28;20022;-69
2021/12/14 08:29:52;;;;;;;15.77;7.95;;;9.40;91.60;;;;;;4971832;28;20060;-66
2021/12/14 08:32:21;;;;;;;13.25;7.55;;;9.30;91.60;;;;;;4970091;28;20043;-67
2021/12/14 08:34:50;;;;;;;13.63;7.97;;;9.40;91.80;;;;;;4969084;28;20031;-66
2021/12/14 08:37:37;;;;;;;14.85;7.80;;;9.40;91.70;;;;;;4962920;28;20130;-66
2021/12/14 08:40:18;;;;;;;14.77;8.27;;;9.40;91.50;;;;;;4979060;28;20038;-66
2021/12/14 08:42:53;;;;;;;12.48;6.75;;;9.40;91.60;;;;;;4966269;28;20451;-67
2021/12/14 08:45:26;;;;;;;11.45;7.40;;;9.40;91.70;;;;;;4971380;28;20035;-67
2021/12/14 08:48:11;;;;;;;21.48;8.10;;;9.40;91.80;;;;;;4971652;28;20034;-67
2021/12/14 08:51:04;;;;;;;14.65;7.88;;;9.30;91.60;;;;;;4966256;28;20050;-66
2021/12/14 08:53:35;;;;;;;13.27;7.07;;;9.30;91.50;;;;;;4964590;28;20035;-67
2021/12/14 08:56:06;;;;;;;16.20;7.95;;;9.30;91.60;;;;;;4968072;28;20129;-66
2021/12/14 08:58:31;;;;;;;17.58;7.68;;;9.30;91.60;;;;;;4966931;28;20046;-67
2021/12/14 09:01:03;;;;;;;16.00;7.97;;;9.30;91.60;;;;;;4970083;28;20030;-66
2021/12/14 09:03:36;;;;;;;14.77;7.43;;;9.40;91.70;;;;;;4964590;28;20034;-67
2021/12/14 09:06:10;;;;;;;13.85;7.15;;;9.40;91.60;;;;;;4962892;28;20120;-66
2021/12/14 09:08:36;;;;;;;21.73;10.75;;;9.40;91.70;;;;;;4964954;28;20085;-67
2021/12/14 09:11:03;;;;;;;20.88;8.93;;;9.50;91.60;;;;;;4970672;28;20046;-67
2021/12/14 09:13:30;;;;;;;20.50;8.07;;;9.50;91.50;;;;;;4965629;28;20483;-67
2021/12/14 09:16:03;;;;;;;14.95;7.22;;;9.50;91.60;;;;;;4971809;28;20073;-67
2021/12/14 09:18:31;;;;;;;16.75;7.25;;;9.50;91.50;;;;;;4967283;28;20295;-67
2021/12/14 09:21:01;;;;;;;12.35;7.20;;;9.60;91.60;;;;;;4966037;28;20120;-66
2021/12/14 09:23:33;;;;;;;13.43;7.40;;;9.60;91.50;;;;;;4963954;28;20034;-65
2021/12/14 09:26:03;;;;;;;14.77;6.93;;;9.60;91.40;;;;;;4973620;28;20037;-65
2021/12/14 09:28:30;;;;;;;10.40;6.20;;;9.60;91.20;;;;;;4965313;28;20039;-66
2021/12/14 09:31:01;;;;;;;13.05;7.30;;;9.60;91.30;;;;;;4969290;28;20083;-65
2021/12/14 09:33:28;;;;;;;11.80;7.10;;;9.70;91.30;;;;;;4965561;28;20066;-65
2021/12/14 09:35:56;;;;;;;15.23;7.60;;;9.70;91.20;;;;;;4947971;28;20047;-64
2021/12/14 09:38:31;;;;;;;14.63;6.80;;;9.70;91.20;;;;;;4966903;28;20053;-65
2021/12/14 09:41:00;;;;;;;12.38;6.47;;;9.70;91.10;;;;;;4972315;28;20137;-64
2021/12/14 09:43:26;;;;;;;13.90;7.53;;;9.70;91.10;;;;;;4963803;28;20133;-63
2021/12/14 09:45:55;;;;;;;8.60;6.10;;;9.80;91.10;;;;;;4968328;28;20137;-64
2021/12/14 09:48:28;;;;;;;12.45;6.70;;;9.80;91.10;;;;;;4964949;28;20034;-67
2021/12/14 09:50:55;;;;;;;10.75;6.40;;;9.80;91.10;;;;;;4963434;28;20047;-66
2021/12/14 09:53:25;;;;;;;10.00;6.53;;;9.80;91.40;;;;;;4969290;28;20042;-68
2021/12/14 09:55:52;;;;;;;11.95;6.40;;;9.80;91.10;;;;;;4970884;28;20425;-66
2021/12/14 09:58:34;;;;;;;12.18;6.75;;;9.80;91.10;;;;;;4967043;28;20178;-66
2021/12/14 10:01:17;;;;;;;11.40;6.10;;;9.80;91.10;;;;;;4966857;28;20621;-66
2021/12/14 10:03:45;;;;;;;11.02;6.70;;;9.80;91.10;;;;;;4964189;28;20031;-66
2021/12/14 10:06:18;;;;;;;10.57;6.05;;;9.80;91.10;;;;;;4966460;28;20495;-65
2021/12/14 10:08:51;;;;;;;13.52;6.97;;;9.90;91.10;;;;;;4970409;28;20514;-65
2021/12/14 10:11:34;;;;;;;12.32;7.18;;;9.80;91.00;;;;;;4968350;28;20109;-65
2021/12/14 10:14:04;;;;;;;13.57;7.75;;;9.90;90.90;;;;;;4967968;28;20142;-67
2021/12/14 10:16:31;;;;;;;15.15;7.63;;;9.90;90.70;;;;;;4965142;28;20860;-66
2021/12/14 10:19:01;;;;;;;12.93;6.75;;;9.90;90.60;;;;;;4962222;28;20035;-65
2021/12/14 10:21:31;;;;;;;17.90;6.55;;;9.90;90.70;;;;;;4966054;28;20034;-66
2021/12/14 10:24:00;;;;;;;9.00;5.38;;;9.90;90.80;;;;;;4970967;28;20030;-68
2021/12/14 10:26:30;;;;;;;9.98;6.15;;;9.90;90.90;;;;;;4966729;28;20062;-66
2021/12/14 10:28:58;;;;;;;12.13;6.68;;;10.00;90.60;;;;;;4965311;28;20042;-66
2021/12/14 10:31:39;;;;;;;17.58;6.70;;;10.00;90.50;;;;;;4961090;28;20046;-68
2021/12/14 10:34:09;;;;;;;16.58;6.43;;;10.00;90.30;;;;;;4961896;28;20061;-66
2021/12/14 10:36:41;;;;;;;10.38;6.47;;;10.10;90.30;;;;;;4969222;28;20110;-68
2021/12/14 10:44:32;;;;;;;9.85;6.18;;;10.10;90.30;;;;;;4962394;28;20042;-68
2021/12/14 10:46:59;;;;;;;11.27;6.43;;;10.20;89.90;;;;;;4963221;28;20043;-66
2021/12/14 10:49:25;;;;;;;11.43;6.38;;;10.20;90.00;;;;;;4968848;28;20031;-67
2021/12/14 10:51:59;;;;;;;11.93;6.25;;;10.20;90.10;;;;;;4969755;28;20051;-66
2021/12/14 10:54:27;;;;;;;8.15;5.45;;;10.30;90.00;;;;;;4962996;28;20050;-66
2021/12/14 10:57:03;;;;;;;13.75;6.47;;;10.30;90.00;;;;;;4966360;28;20027;-66
2021/12/14 10:59:34;;;;;;;;;;;10.40;90.00;;;;;;4962744;28;20422;-66
2021/12/14 11:02:00;;;;;;;21.75;10.77;;;10.40;89.70;;;;;;4965318;28;19920;-67
2021/12/14 11:04:38;;;;;;;19.00;11.23;;;10.50;89.90;;;;;;4967781;28;20038;-67
2021/12/14 11:07:12;;;;;;;16.42;10.43;;;10.50;89.00;;;;;;4963464;28;20034;-67
2021/12/14 11:09:49;;;;;;;14.02;9.43;;;10.60;89.20;;;;;;4965453;28;20114;-68
2021/12/14 11:12:35;;;;;;;14.95;9.20;;;10.60;88.90;;;;;;4959852;28;20085;-67
2021/12/14 11:15:05;;;;;;;15.52;9.43;;;10.70;88.70;;;;;;4961140;28;20043;-67
2021/12/14 11:20:31;;;;;;;14.75;8.05;;;10.70;88.20;;;;;;4963353;28;20034;-67
2021/12/14 11:23:03;;;;;;;16.98;11.02;;;10.80;87.70;;;;;;4963103;28;20030;-67
2021/12/14 11:25:31;;;;;;;16.25;9.63;;;10.80;87.40;;;;;;4967056;28;20121;-67
2021/12/14 11:28:07;;;;;;;25.40;13.93;;;10.80;86.70;;;;;;4963627;28;20187;-67
2021/12/14 11:30:36;;;;;;;27.25;12.88;;;10.80;87.30;;;;;;4967662;28;20046;-67
2021/12/14 11:33:26;;;;;;;20.88;12.55;;;10.80;87.60;;;;;;4969887;28;20038;-67
2021/12/14 11:36:01;;;;;;;22.88;10.43;;;10.80;86.90;;;;;;4968348;28;20861;-66
2021/12/14 11:38:36;;;;;;;19.73;13.98;;;10.80;86.10;;;;;;4964732;28;20042;-67
2021/12/14 11:41:26;;;;;;;19.98;11.63;;;10.80;86.10;;;;;;4962928;28;20038;-67
2021/12/14 11:43:55;;;;;;;12.93;8.77;;;10.80;86.60;;;;;;4963484;28;20053;-67
2021/12/14 11:46:21;;;;;;;11.52;7.10;;;10.90;86.10;;;;;;4968870;28;20317;-67
2021/12/14 11:48:47;;;;;;;11.25;7.57;;;10.90;85.90;;;;;;4967603;28;20062;-67
2021/12/14 11:51:14;;;;;;;13.20;7.22;;;10.90;84.70;;;;;;4965106;28;20045;-67
2021/12/14 11:53:48;;;;;;;10.68;6.95;;;10.80;85.40;;;;;;4963176;28;20027;-68
2021/12/14 11:56:19;;;;;;;10.77;6.80;;;10.80;84.80;;;;;;4958310;28;20038;-67
2021/12/14 11:58:57;;;;;;;10.02;6.85;;;10.80;85.20;;;;;;4964993;28;20039;-67
2021/12/14 12:01:46;;;;;;;10.02;6.32;;;10.80;85.90;;;;;;4966949;28;20125;-67
2021/12/14 12:04:24;;;;;;;11.82;7.25;;;10.90;87.30;;;;;;4964365;28;20031;-67
2021/12/14 12:09:35;;;;;;;11.05;7.43;;;11.00;86.90;;;;;;4962076;28;20613;-67
2021/12/14 12:12:06;;;;;;;13.18;8.75;;;11.10;86.70;;;;;;4963743;28;20066;-67
2021/12/14 12:14:57;;;;;;;13.02;7.63;;;11.10;86.50;;;;;;4962647;28;20030;-68
2021/12/14 12:17:28;;;;;;;9.30;6.35;;;11.10;85.60;;;;;;4967496;28;20499;-70
2021/12/14 12:19:57;;;;;;;10.02;6.30;;;11.20;86.30;;;;;;4968197;28;20034;-67
2021/12/14 12:22:25;;;;;;;9.20;6.32;;;11.20;86.30;;;;;;4967459;28;20031;-67
2021/12/14 12:24:57;;;;;;;8.98;6.25;;;11.20;86.30;;;;;;4965371;28;20514;-69
2021/12/14 12:27:31;;;;;;;12.30;7.40;;;11.30;86.40;;;;;;4968772;28;20380;-68
2021/12/14 12:30:26;;;;;;;11.15;7.65;;;11.30;85.20;;;;;;4963729;28;20038;-69
2021/12/14 12:32:53;;;;;;;13.82;8.82;;;11.30;84.90;;;;;;4964913;28;20042;-68
2021/12/14 12:35:26;;;;;;;12.70;7.57;;;11.20;85.40;;;;;;4967546;28;20545;-69
2021/12/14 12:37:52;;;;;;;19.15;12.85;;;11.20;85.50;;;;;;4966813;28;20043;-68
2021/12/14 12:40:34;;;;;;;18.40;10.15;;;11.20;85.50;;;;;;4968278;28;20034;-68
2021/12/14 12:43:33;;;;;;;15.25;9.63;;;11.20;85.30;;;;;;4979417;28;20030;-69
2021/12/14 12:46:04;;;;;;;13.77;9.10;;;11.20;84.60;;;;;;4974620;28;20133;-69
2021/12/14 12:48:39;;;;;;;13.13;7.53;;;11.20;85.80;;;;;;4968820;28;20544;-69
2021/12/14 12:51:05;;;;;;;9.70;6.88;;;11.20;85.80;;;;;;4966462;28;20039;-69
2021/12/14 12:53:30;;;;;;;13.82;7.97;;;11.30;86.10;;;;;;4964422;28;20043;-71
2021/12/14 12:56:14;;;;;;;10.10;7.32;;;11.30;85.60;;;;;;4973473;28;20046;-68
2021/12/14 12:58:49;;;;;;;30.73;14.07;;;11.30;85.50;;;;;;4964806;28;20138;-68
2021/12/14 13:01:17;;;;;;;66.75;27.20;;;11.30;85.20;;;;;;4967824;28;20039;-68
2021/12/14 13:03:43;;;;;;;44.35;20.65;;;11.30;85.20;;;;;;4966584;28;20042;-68
2021/12/14 13:06:13;;;;;;;20.42;11.57;;;11.30;86.10;;;;;;4962792;28;20046;-68
2021/12/14 13:08:43;;;;;;;14.88;8.95;;;11.30;85.80;;;;;;4964171;28;20042;-68
2021/12/14 13:11:18;;;;;;;12.30;6.82;;;11.30;85.60;;;;;;4970513;28;20517;-68
2021/12/14 13:14:01;;;;;;;11.07;7.35;;;11.20;85.70;;;;;;4969366;28;20034;-68
2021/12/14 13:16:35;;;;;;;15.00;8.38;;;11.20;86.30;;;;;;4945494;28;20070;-71
2021/12/14 13:19:13;;;;;;;11.32;7.78;;;11.10;86.80;;;;;;4966603;28;20065;-68
2021/12/14 13:22:03;;;;;;;16.23;8.77;;;11.00;87.30;;;;;;4964643;28;20423;-69
2021/12/14 13:24:30;;;;;;;13.20;7.45;;;10.90;88.20;;;;;;4960333;28;20039;-68
2021/12/14 13:27:08;;;;;;;15.02;8.95;;;10.80;89.20;;;;;;4970918;28;20042;-68
2021/12/14 13:29:36;;;;;;;13.98;8.85;;;10.70;89.90;;;;;;4966492;28;20093;-68
2021/12/14 13:32:01;;;;;;;15.77;8.00;;;10.70;90.20;;;;;;4966608;28;20027;-68
2021/12/14 13:34:33;;;;;;;13.05;8.00;;;10.60;90.50;;;;;;4963771;28;20105;-68
2021/12/14 13:36:59;;;;;;;13.80;8.52;;;10.50;90.80;;;;;;4971939;28;20038;-68
2021/12/14 13:39:26;;;;;;;13.65;8.05;;;10.40;91.00;;;;;;4969169;28;20805;-68
2021/12/14 13:41:58;;;;;;;14.77;8.77;;;10.40;91.30;;;;;;4963850;28;20785;-66
2021/12/14 13:44:25;;;;;;;14.88;8.88;;;10.30;91.40;;;;;;4964338;28;20046;-65
2021/12/14 13:46:52;;;;;;;15.50;8.75;;;10.30;91.50;;;;;;4965370;28;20043;-68
2021/12/14 13:49:18;;;;;;;15.85;8.70;;;10.30;91.80;;;;;;4967254;28;20813;-67
2021/12/14 13:51:44;;;;;;;13.85;8.35;;;10.20;91.90;;;;;;4972617;28;20058;-68
2021/12/14 13:54:10;;;;;;;13.13;8.35;;;10.20;92.10;;;;;;4968342;28;20487;-68
2021/12/14 13:56:38;;;;;;;12.13;7.22;;;10.20;92.30;;;;;;4967190;28;20104;-68
2021/12/14 13:59:06;;;;;;;15.25;8.85;;;10.20;92.30;;;;;;4965004;28;20026;-68